createdAt,value
2018-02-02T00:02:10.460Z,16.80
2018-02-02T00:04:36.640Z,15.90
2018-02-02T00:07:02.816Z,15.83
2018-02-02T00:09:28.984Z,15.00
2018-02-02T00:11:56.082Z,16.27
2018-02-02T00:14:23.671Z,15.30
2018-02-02T00:16:49.839Z,14.60
2018-02-02T00:19:16.951Z,16.57
2018-02-02T00:21:43.120Z,16.40
2018-02-02T00:24:09.280Z,16.77
2018-02-02T00:26:36.173Z,16.40
2018-02-02T00:29:02.348Z,17.70
2018-02-02T00:31:28.492Z,17.40
2018-02-02T00:33:55.441Z,16.70
2018-02-02T00:36:21.644Z,17.63
2018-02-02T00:38:47.878Z,18.87
2018-02-02T00:41:14.081Z,17.20
2018-02-02T00:43:40.227Z,17.30
2018-02-02T00:46:06.392Z,16.83
2018-02-02T00:48:32.580Z,17.30
2018-02-02T00:51:04.853Z,18.73
2018-02-02T00:53:31.010Z,16.80
2018-02-02T00:55:57.412Z,15.80
2018-02-02T00:58:23.572Z,14.97
2018-02-02T01:00:49.711Z,18.00
2018-02-02T01:03:15.904Z,15.67
2018-02-02T01:05:42.067Z,17.87
2018-02-02T01:08:08.227Z,17.10
2018-02-02T01:10:34.416Z,15.57
2018-02-02T01:13:00.555Z,15.00
2018-02-02T01:15:26.703Z,14.93
2018-02-02T01:17:52.855Z,15.23
2018-02-02T01:20:19.018Z,15.17
2018-02-02T01:22:45.915Z,14.83
2018-02-02T01:25:12.819Z,16.27
2018-02-02T01:27:39.738Z,15.70
2018-02-02T01:30:05.888Z,16.43
2018-02-02T01:32:32.060Z,16.53
2018-02-02T01:34:58.222Z,17.13
2018-02-02T01:37:24.563Z,16.20
2018-02-02T01:39:51.034Z,16.20
2018-02-02T01:42:17.928Z,16.47
2018-02-02T01:44:44.079Z,16.97
2018-02-02T01:47:10.263Z,16.60
2018-02-02T01:49:37.189Z,16.70
2018-02-02T01:52:04.107Z,16.43
2018-02-02T01:54:30.268Z,16.43
2018-02-02T01:56:56.430Z,18.30
2018-02-02T01:59:23.320Z,17.60
2018-02-02T02:01:49.483Z,16.90
2018-02-02T02:04:16.379Z,17.60
2018-02-02T02:06:42.531Z,17.80
2018-02-02T02:09:08.715Z,16.93
2018-02-02T02:11:34.859Z,18.00
2018-02-02T02:14:01.015Z,17.77
2018-02-02T02:16:27.188Z,16.23
2018-02-02T02:18:53.347Z,18.17
2018-02-02T02:21:20.253Z,16.90
2018-02-02T02:23:46.406Z,16.50
2018-02-02T02:26:12.570Z,17.47
2018-02-02T02:28:39.451Z,16.70
2018-02-02T02:31:05.605Z,15.80
2018-02-02T02:33:31.744Z,16.93
2018-02-02T02:35:57.906Z,17.03
2018-02-02T02:38:24.899Z,17.70
2018-02-02T02:40:51.077Z,17.40
2018-02-02T02:43:17.988Z,16.70
2018-02-02T02:45:44.167Z,17.07
2018-02-02T02:48:10.322Z,18.10
2018-02-02T02:50:36.499Z,17.60
2018-02-02T02:53:02.668Z,18.50
2018-02-02T02:55:28.820Z,16.93
2018-02-02T02:57:55.746Z,17.10
2018-02-02T03:00:21.933Z,17.23
2018-02-02T03:02:48.076Z,17.93
2018-02-02T03:05:14.224Z,16.00
2018-02-02T03:07:40.400Z,16.90
2018-02-02T03:10:07.324Z,17.23
2018-02-02T03:12:33.468Z,17.67
2018-02-02T03:15:00.400Z,16.33
2018-02-02T03:17:26.553Z,17.20
2018-02-02T03:19:52.720Z,15.57
2018-02-02T03:22:18.907Z,16.67
2018-02-02T03:24:45.052Z,16.60
2018-02-02T03:27:11.208Z,16.03
2018-02-02T03:29:37.405Z,16.47
2018-02-02T03:32:03.567Z,15.77
2018-02-02T03:34:30.454Z,18.03
2018-02-02T03:36:56.621Z,17.03
2018-02-02T03:39:23.804Z,16.13
2018-02-02T03:41:50.244Z,16.17
2018-02-02T03:44:16.431Z,18.10
2018-02-02T03:46:42.589Z,19.37
2018-02-02T03:49:08.728Z,17.83
2018-02-02T03:51:37.248Z,19.07
2018-02-02T03:54:03.404Z,18.27
2018-02-02T03:56:29.547Z,18.43
2018-02-02T03:58:55.715Z,19.33
2018-02-02T04:01:22.618Z,19.23
2018-02-02T04:03:48.772Z,20.13
2018-02-02T04:06:14.952Z,20.80
2018-02-02T04:08:41.152Z,21.40
2018-02-02T04:11:07.328Z,19.73
2018-02-02T04:13:33.531Z,21.47
2018-02-02T04:15:59.680Z,22.47
2018-02-02T04:18:26.600Z,22.23
2018-02-02T04:20:53.552Z,22.43
2018-02-02T04:23:19.712Z,21.90
2018-02-02T04:25:46.604Z,22.97
2018-02-02T04:28:12.820Z,24.90
2018-02-02T04:30:38.974Z,23.90
2018-02-02T04:33:05.111Z,23.73
2018-02-02T04:35:32.212Z,21.70
2018-02-02T04:37:58.368Z,23.90
2018-02-02T04:40:24.579Z,25.20
2018-02-02T04:42:52.534Z,23.90
2018-02-02T04:45:18.693Z,23.80
2018-02-02T04:47:45.585Z,24.10
2018-02-02T04:50:11.763Z,24.70
2018-02-02T04:52:38.703Z,23.93
2018-02-02T04:55:04.871Z,23.27
2018-02-02T04:57:31.065Z,25.27
2018-02-02T04:59:57.219Z,23.90
2018-02-02T05:02:24.112Z,23.77
2018-02-02T05:04:50.275Z,23.57
2018-02-02T05:07:16.432Z,23.10
2018-02-02T05:09:42.565Z,21.70
2018-02-02T05:12:08.748Z,24.50
2018-02-02T05:14:34.910Z,24.57
2018-02-02T05:17:01.047Z,26.00
2018-02-02T05:19:27.211Z,22.90
2018-02-02T05:21:54.092Z,22.87
2018-02-02T05:24:20.235Z,21.33
2018-02-02T05:26:47.274Z,24.67
2018-02-02T05:29:13.424Z,23.10
2018-02-02T05:31:39.579Z,24.43
2018-02-02T05:34:05.739Z,22.47
2018-02-02T05:36:32.615Z,21.97
2018-02-02T05:38:58.784Z,22.60
2018-02-02T05:41:26.015Z,22.10
2018-02-02T05:43:52.352Z,24.53
2018-02-02T05:46:18.518Z,22.70
2018-02-02T05:48:44.680Z,23.33
2018-02-02T05:51:11.576Z,24.30
2018-02-02T05:53:37.751Z,23.53
2018-02-02T05:56:03.920Z,23.83
2018-02-02T05:58:30.068Z,24.70
2018-02-02T06:00:56.260Z,23.43
2018-02-02T06:03:22.391Z,24.13
2018-02-02T06:05:49.275Z,24.20
2018-02-02T06:08:15.443Z,25.33
2018-02-02T06:10:41.607Z,25.80
2018-02-02T06:13:08.484Z,25.90
2018-02-02T06:15:34.636Z,25.77
2018-02-02T06:18:00.856Z,26.50
2018-02-02T06:20:26.991Z,25.60
2018-02-02T06:22:53.143Z,25.50
2018-02-02T06:25:19.354Z,25.30
2018-02-02T06:27:46.236Z,24.90
2018-02-02T06:30:13.159Z,26.33
2018-02-02T06:32:39.333Z,25.80
2018-02-02T06:35:06.235Z,25.17
2018-02-02T06:37:32.396Z,25.60
2018-02-02T06:39:59.348Z,27.53
2018-02-02T06:42:25.564Z,25.97
2018-02-02T06:44:51.948Z,24.90
2018-02-02T06:47:18.917Z,22.20
2018-02-02T06:49:45.092Z,27.40
2018-02-02T06:52:11.260Z,25.43
2018-02-02T06:54:37.420Z,24.20
2018-02-02T06:57:04.308Z,24.60
2018-02-02T06:59:30.497Z,24.73
2018-02-02T07:01:57.430Z,25.53
2018-02-02T07:04:23.587Z,25.37
2018-02-02T07:06:49.889Z,25.40
2018-02-02T07:09:16.059Z,26.30
2018-02-02T07:11:42.957Z,25.37
2018-02-02T07:14:09.109Z,24.70
2018-02-02T07:16:36.008Z,25.80
2018-02-02T07:19:02.168Z,25.03
2018-02-02T07:21:28.327Z,25.90
2018-02-02T07:23:54.512Z,25.37
2018-02-02T07:26:20.714Z,25.57
2018-02-02T07:28:47.617Z,26.90
2018-02-02T07:31:13.799Z,25.20
2018-02-02T07:33:40.695Z,24.50
2018-02-02T07:36:06.842Z,27.07
2018-02-02T07:38:32.995Z,25.80
2018-02-02T07:40:59.903Z,25.40
2018-02-02T07:43:26.167Z,25.57
2018-02-02T07:45:52.603Z,26.53
2018-02-02T07:48:18.760Z,25.40
2018-02-02T07:50:45.809Z,26.90
2018-02-02T07:53:12.119Z,25.30
2018-02-02T07:55:38.269Z,24.10
2018-02-02T07:58:04.403Z,23.70
2018-02-02T08:00:37.403Z,24.73
2018-02-02T08:03:04.295Z,24.00
2018-02-02T08:05:30.443Z,25.90
2018-02-02T08:07:56.595Z,22.37
2018-02-02T08:10:22.751Z,22.57
2018-02-02T08:12:49.639Z,22.63
2018-02-02T08:15:15.803Z,23.20
2018-02-02T08:17:41.972Z,22.97
2018-02-02T08:20:08.154Z,22.10
2018-02-02T08:22:34.304Z,22.13
2018-02-02T08:25:00.451Z,21.23
2018-02-02T08:27:26.602Z,21.80
2018-02-02T08:29:53.512Z,20.27
2018-02-02T08:32:19.669Z,20.20
2018-02-02T08:34:45.813Z,19.20
2018-02-02T08:37:12.035Z,22.57
2018-02-02T08:39:38.180Z,21.20
2018-02-02T08:42:04.347Z,22.83
2018-02-02T08:44:30.555Z,20.50
2018-02-02T08:46:56.952Z,20.53
2018-02-02T08:49:23.094Z,20.20
2018-02-02T08:51:49.302Z,19.40
2018-02-02T08:54:15.440Z,19.40
2018-02-02T08:56:41.583Z,20.27
2018-02-02T08:59:07.735Z,20.27
2018-02-02T09:04:38.855Z,20.07
2018-02-02T09:07:04.992Z,20.33
2018-02-02T09:09:31.156Z,19.63
2018-02-02T09:11:57.331Z,20.03
2018-02-02T09:14:23.497Z,18.63
2018-02-02T09:16:49.674Z,18.23
2018-02-02T09:19:16.635Z,19.07
2018-02-02T09:21:52.588Z,18.30
2018-02-02T09:24:18.767Z,20.97
2018-02-02T09:26:44.920Z,18.40
2018-02-02T09:29:11.056Z,19.57
2018-02-02T09:31:37.233Z,20.30
2018-02-02T09:34:03.431Z,17.80
2018-02-02T09:36:29.583Z,18.77
2018-02-02T09:38:56.775Z,20.53
2018-02-02T09:41:22.948Z,19.40
2018-02-02T09:43:49.104Z,17.50
2018-02-02T09:46:16.079Z,16.90
2018-02-02T09:48:42.396Z,16.90
2018-02-02T09:51:08.590Z,16.17
2018-02-02T09:53:34.764Z,15.83
2018-02-02T09:56:01.663Z,13.80
2018-02-02T09:58:27.835Z,13.97
2018-02-02T10:00:54.731Z,13.20
2018-02-02T10:03:20.895Z,15.17
2018-02-02T10:05:47.807Z,13.40
2018-02-02T10:08:13.973Z,11.90
2018-02-02T10:10:40.139Z,10.87
2018-02-02T10:13:07.024Z,11.10
2018-02-02T10:15:33.172Z,11.40
2018-02-02T10:17:59.311Z,11.03
2018-02-02T10:20:25.468Z,11.53
2018-02-02T10:22:51.681Z,11.33
2018-02-02T10:25:17.832Z,10.70
2018-02-02T10:27:44.016Z,10.60
2018-02-02T10:30:10.208Z,9.70
2018-02-02T10:32:36.352Z,9.57
2018-02-02T10:35:03.247Z,11.10
2018-02-02T10:37:29.420Z,9.63
2018-02-02T10:39:55.567Z,9.57
2018-02-02T10:42:22.465Z,10.23
2018-02-02T10:44:48.634Z,10.40
2018-02-02T10:47:15.604Z,10.07
2018-02-02T10:49:41.788Z,10.50
2018-02-02T10:52:07.970Z,9.73
2018-02-02T10:54:34.113Z,9.33
2018-02-02T10:57:01.028Z,10.60
2018-02-02T10:59:27.215Z,9.10
2018-02-02T11:01:59.456Z,9.70
2018-02-02T11:04:26.348Z,9.40
2018-02-02T11:06:52.532Z,8.70
2018-02-02T11:09:19.424Z,9.40
2018-02-02T11:11:45.560Z,9.27
2018-02-02T11:14:11.727Z,9.90
2018-02-02T11:16:37.876Z,10.70
2018-02-02T11:19:04.011Z,10.73
2018-02-02T11:21:30.915Z,9.93
2018-02-02T11:23:57.076Z,13.40
2018-02-02T11:26:23.272Z,12.90
2018-02-02T11:28:49.489Z,13.23
2018-02-02T11:31:15.656Z,12.00
2018-02-02T11:33:41.836Z,11.60
2018-02-02T11:36:08.740Z,11.50
2018-02-02T11:38:34.877Z,13.70
2018-02-02T11:41:01.052Z,12.67
2018-02-02T11:43:27.211Z,12.60
2018-02-02T11:45:53.360Z,12.57
2018-02-02T11:48:19.778Z,12.83
2018-02-02T11:50:46.151Z,13.83
2018-02-02T11:53:13.084Z,12.93
2018-02-02T11:55:40.031Z,13.53
2018-02-02T11:58:06.187Z,13.70
2018-02-02T12:00:32.355Z,15.70
2018-02-02T12:02:59.259Z,13.67
2018-02-02T12:05:25.432Z,16.20
2018-02-02T12:07:51.588Z,16.17
2018-02-02T12:10:18.484Z,14.40
2018-02-02T12:12:44.666Z,14.07
2018-02-02T12:15:11.625Z,15.97
2018-02-02T12:17:37.759Z,15.80
2018-02-02T12:20:04.955Z,18.73
2018-02-02T12:22:37.292Z,17.80
2018-02-02T12:25:09.518Z,17.60
2018-02-02T12:27:38.795Z,16.90
2018-02-02T12:30:16.821Z,21.70
2018-02-02T12:32:49.281Z,19.73
2018-02-02T12:35:16.301Z,22.70
2018-02-02T12:37:42.464Z,21.50
2018-02-02T12:40:08.620Z,19.80
2018-02-02T12:42:34.760Z,20.73
2018-02-02T12:45:00.942Z,18.50
2018-02-02T12:47:34.247Z,20.83
2018-02-02T12:50:05.484Z,22.63
2018-02-02T12:52:31.676Z,23.50
2018-02-02T12:54:57.814Z,21.60
2018-02-02T12:57:24.736Z,20.63
2018-02-02T12:59:50.883Z,20.90
2018-02-02T13:02:17.079Z,21.57
2018-02-02T13:04:43.247Z,21.13
2018-02-02T13:07:09.432Z,22.40
2018-02-02T13:09:35.609Z,22.10
2018-02-02T13:12:01.796Z,22.93
2018-02-02T13:14:27.942Z,21.20
2018-02-02T13:16:54.112Z,22.50
2018-02-02T13:19:20.272Z,22.23
2018-02-02T13:21:47.149Z,21.90
2018-02-02T13:24:13.350Z,21.20
2018-02-02T13:26:39.551Z,20.43
2018-02-02T13:29:05.717Z,19.83
2018-02-02T13:31:31.864Z,21.00
2018-02-02T13:33:58.046Z,19.97
2018-02-02T13:36:24.207Z,20.60
2018-02-02T13:38:50.368Z,22.27
2018-02-02T13:41:17.263Z,23.40
2018-02-02T13:43:43.459Z,21.87
2018-02-02T13:46:09.608Z,21.37
2018-02-02T13:48:35.755Z,21.80
2018-02-02T13:51:02.041Z,21.50
2018-02-02T13:53:28.431Z,22.40
2018-02-02T13:55:54.600Z,22.27
2018-02-02T13:58:21.490Z,21.77
2018-02-02T14:00:47.648Z,28.07
2018-02-02T14:03:13.808Z,24.00
2018-02-02T14:05:39.955Z,26.53
2018-02-02T14:08:06.850Z,26.73
2018-02-02T14:10:33.004Z,23.80
2018-02-02T14:12:59.147Z,22.90
2018-02-02T14:15:25.363Z,21.67
2018-02-02T14:17:51.528Z,23.57
2018-02-02T14:20:17.711Z,25.63
2018-02-02T14:22:43.869Z,23.63
2018-02-02T14:25:10.020Z,25.80
2018-02-02T14:27:36.176Z,24.60
2018-02-02T14:30:03.071Z,22.50
2018-02-02T14:32:29.395Z,22.30
2018-02-02T14:34:55.539Z,22.87
2018-02-02T14:37:21.704Z,22.47
2018-02-02T14:39:47.905Z,21.63
2018-02-02T14:42:14.047Z,23.30
2018-02-02T14:44:40.233Z,23.30
2018-02-02T14:47:06.401Z,20.93
2018-02-02T14:49:32.544Z,20.70
2018-02-02T14:51:58.759Z,20.03
2018-02-02T14:54:25.123Z,21.70
2018-02-02T14:56:51.284Z,21.10
2018-02-02T14:59:17.427Z,20.00
2018-02-02T15:01:44.335Z,20.27
2018-02-02T15:04:10.494Z,23.10
2018-02-02T15:06:36.651Z,22.80
2018-02-02T15:09:03.576Z,22.20
2018-02-02T15:11:30.468Z,22.80
2018-02-02T15:13:56.623Z,22.13
2018-02-02T15:16:22.796Z,23.50
2018-02-02T15:18:48.947Z,19.77
2018-02-02T15:21:15.833Z,20.60
2018-02-02T15:23:42.003Z,23.07
2018-02-02T15:26:08.151Z,20.13
2018-02-02T15:28:35.060Z,19.90
2018-02-02T15:31:01.221Z,21.47
2018-02-02T15:33:27.412Z,19.07
2018-02-02T15:35:53.564Z,21.43
2018-02-02T15:38:19.732Z,19.27
2018-02-02T15:40:46.667Z,19.70
2018-02-02T15:43:12.833Z,17.60
2018-02-02T15:45:39.770Z,16.97
2018-02-02T15:48:06.696Z,16.70
2018-02-02T15:50:32.865Z,17.90
2018-02-02T15:52:59.140Z,18.03
2018-02-02T15:55:25.488Z,18.97
2018-02-02T15:57:51.635Z,21.43
2018-02-02T16:00:17.788Z,19.03
2018-02-02T16:02:43.933Z,18.93
2018-02-02T16:05:10.828Z,18.67
2018-02-02T16:07:36.985Z,18.80
2018-02-02T16:10:03.153Z,20.60
2018-02-02T16:12:29.319Z,19.80
2018-02-02T16:14:55.513Z,20.30
2018-02-02T16:17:22.432Z,21.20
2018-02-02T16:19:49.332Z,18.90
2018-02-02T16:22:15.527Z,18.60
2018-02-02T16:24:42.451Z,19.83
2018-02-02T16:27:08.659Z,18.10
2018-02-02T16:29:34.864Z,19.80
2018-02-02T16:32:01.788Z,22.50
2018-02-02T16:34:27.946Z,19.70
2018-02-02T16:36:54.132Z,18.33
2018-02-02T16:39:20.339Z,18.13
2018-02-02T16:41:47.299Z,18.57
2018-02-02T16:44:13.439Z,17.77
2018-02-02T16:46:39.602Z,16.67
2018-02-02T16:49:05.750Z,15.80
2018-02-02T16:51:31.941Z,17.60
2018-02-02T16:53:58.164Z,16.07
2018-02-02T16:56:24.531Z,16.67
2018-02-02T16:58:52.552Z,16.63
2018-02-02T17:01:19.445Z,17.50
2018-02-02T17:03:45.600Z,16.70
2018-02-02T17:06:11.811Z,14.47
2018-02-02T17:08:37.980Z,14.10
2018-02-02T17:11:04.180Z,13.30
2018-02-02T17:13:30.355Z,13.43
2018-02-02T17:15:57.240Z,13.67
2018-02-02T17:18:23.399Z,14.60
2018-02-02T17:20:49.559Z,17.97
2018-02-02T17:23:15.700Z,15.33
2018-02-02T17:25:42.596Z,14.23
2018-02-02T17:28:08.768Z,11.63
2018-02-02T17:30:34.924Z,13.93
2018-02-02T17:33:01.835Z,12.17
2018-02-02T17:35:28.020Z,10.83
2018-02-02T17:37:54.899Z,10.43
2018-02-02T17:40:21.071Z,9.50
2018-02-02T17:42:48.015Z,10.80
2018-02-02T17:45:14.183Z,11.30
2018-02-02T17:47:41.083Z,20.07
2018-02-02T17:50:07.223Z,16.00
2018-02-02T17:52:33.368Z,13.63
2018-02-02T17:54:59.580Z,13.00
2018-02-02T17:57:25.917Z,15.97
2018-02-02T17:59:52.068Z,19.27
2018-02-02T18:02:25.170Z,15.43
2018-02-02T18:04:51.340Z,13.20
2018-02-02T18:07:18.238Z,13.40
2018-02-02T18:09:45.868Z,15.27
2018-02-02T18:12:12.060Z,13.63
2018-02-02T18:14:38.972Z,16.27
2018-02-02T18:17:05.136Z,15.83
2018-02-02T18:19:32.129Z,15.17
2018-02-02T18:21:58.288Z,16.37
2018-02-02T18:24:24.438Z,15.30
2018-02-02T18:26:50.673Z,16.97
2018-02-02T18:29:16.816Z,47.73
2018-02-02T18:31:42.983Z,23.80
2018-02-02T18:34:09.143Z,16.63
2018-02-02T18:36:35.300Z,16.30
2018-02-02T18:39:01.472Z,14.13
2018-02-02T18:41:28.368Z,13.67
2018-02-02T18:43:54.580Z,12.20
2018-02-02T18:46:20.744Z,11.00
2018-02-02T18:48:46.928Z,11.73
2018-02-02T18:51:13.075Z,12.53
2018-02-02T18:53:39.224Z,10.40
2018-02-02T18:56:05.488Z,10.60
2018-02-02T18:58:31.953Z,10.20
2018-02-02T19:00:58.870Z,11.80
2018-02-02T19:03:25.017Z,12.80
2018-02-02T19:05:51.167Z,11.73
2018-02-02T19:08:18.067Z,12.10
2018-02-02T19:10:44.256Z,11.73
2018-02-02T19:13:11.146Z,12.30
2018-02-02T19:15:37.308Z,13.20
2018-02-02T19:18:03.472Z,11.83
2018-02-02T19:20:29.661Z,11.90
2018-02-02T19:22:55.815Z,12.23
2018-02-02T19:25:22.056Z,13.10
2018-02-02T19:27:48.200Z,10.93
2018-02-02T19:30:15.088Z,18.27
2018-02-02T19:32:41.247Z,11.67
2018-02-02T19:35:07.439Z,12.80
2018-02-02T19:37:34.319Z,11.53
2018-02-02T19:40:00.500Z,11.80
2018-02-02T19:42:27.471Z,10.30
2018-02-02T19:44:53.596Z,11.60
2018-02-02T19:47:20.499Z,10.03
2018-02-02T19:49:46.656Z,10.40
2018-02-02T19:52:12.848Z,10.30
2018-02-02T19:54:39.033Z,10.33
2018-02-02T19:57:15.968Z,11.97
2018-02-02T19:59:42.345Z,13.30
2018-02-02T20:02:09.258Z,11.67
2018-02-02T20:04:36.928Z,12.10
2018-02-02T20:07:03.114Z,11.57
2018-02-02T20:09:29.325Z,12.93
2018-02-02T20:11:55.470Z,14.20
2018-02-02T20:14:22.384Z,13.13
2018-02-02T20:16:48.571Z,14.30
2018-02-02T20:19:14.763Z,13.20
2018-02-02T20:21:40.995Z,14.13
2018-02-02T20:24:07.259Z,22.63
2018-02-02T20:26:33.444Z,15.30
2018-02-02T20:28:59.627Z,14.47
2018-02-02T20:31:26.509Z,15.17
2018-02-02T20:33:52.699Z,15.07
2018-02-02T20:36:18.884Z,16.30
2018-02-02T20:38:45.044Z,14.40
2018-02-02T20:41:11.230Z,15.70
2018-02-02T20:43:37.469Z,16.47
2018-02-02T20:46:04.340Z,16.10
2018-02-02T20:48:30.524Z,15.90
2018-02-02T20:50:57.453Z,15.87
2018-02-02T20:53:24.364Z,16.90
2018-02-02T20:55:50.515Z,15.20
2018-02-02T20:58:16.763Z,15.03
2018-02-02T21:00:43.103Z,18.90
2018-02-02T21:03:10.162Z,16.57
2018-02-02T21:05:36.449Z,17.67
2018-02-02T21:08:03.508Z,16.03
2018-02-02T21:10:29.780Z,16.50
2018-02-02T21:12:57.020Z,17.20
2018-02-02T21:15:23.602Z,16.17
2018-02-02T21:17:49.896Z,17.43
2018-02-02T21:20:16.088Z,19.50
2018-02-02T21:22:42.979Z,18.17
2018-02-02T21:25:09.247Z,18.13
2018-02-02T21:27:36.159Z,18.73
2018-02-02T21:30:02.328Z,17.60
2018-02-02T21:32:28.481Z,17.73
2018-02-02T21:34:55.384Z,18.23
2018-02-02T21:37:21.529Z,18.53
2018-02-02T21:39:47.725Z,17.37
2018-02-02T21:42:13.889Z,19.20
2018-02-02T21:44:40.095Z,17.73
2018-02-02T21:47:06.256Z,19.23
2018-02-02T21:49:32.448Z,18.67
2018-02-02T21:51:58.687Z,17.47
2018-02-02T21:54:24.861Z,19.10
2018-02-02T21:56:51.039Z,18.10
2018-02-02T21:59:17.290Z,18.47
2018-02-02T22:01:43.580Z,16.20
2018-02-02T22:04:09.795Z,16.77
2018-02-02T22:06:35.959Z,16.13
2018-02-02T22:09:02.872Z,16.83
2018-02-02T22:11:29.079Z,14.83
2018-02-02T22:13:55.242Z,14.90
2018-02-02T22:16:21.430Z,13.80
2018-02-02T22:18:48.344Z,13.87
2018-02-02T22:21:15.259Z,14.33
2018-02-02T22:23:41.431Z,12.40
2018-02-02T22:26:07.601Z,11.07
2018-02-02T22:28:33.780Z,9.57
2018-02-02T22:30:59.956Z,9.50
2018-02-02T22:33:26.160Z,7.20
2018-02-02T22:35:52.323Z,7.43
2018-02-02T22:38:19.231Z,6.87
2018-02-02T22:40:45.392Z,7.10
2018-02-02T22:43:12.307Z,8.60
2018-02-02T22:45:38.471Z,8.23
2018-02-02T22:48:05.401Z,8.67
2018-02-02T22:50:31.554Z,8.30
2018-02-02T22:52:58.451Z,9.07
2018-02-02T22:55:24.738Z,8.70
2018-02-02T22:57:50.924Z,9.50
2018-02-02T23:00:17.159Z,9.47
2018-02-02T23:02:43.448Z,13.07
2018-02-02T23:05:09.634Z,10.90
2018-02-02T23:07:36.016Z,10.20
2018-02-02T23:10:02.917Z,10.40
2018-02-02T23:12:29.087Z,10.50
2018-02-02T23:14:56.032Z,12.07
2018-02-02T23:17:22.940Z,11.90
2018-02-02T23:19:49.132Z,12.15
2018-02-02T23:22:16.065Z,12.70
2018-02-02T23:24:42.976Z,9.55
2018-02-02T23:27:09.152Z,11.70
2018-02-02T23:29:35.332Z,11.70
2018-02-02T23:32:01.520Z,11.93
2018-02-02T23:34:27.699Z,12.80
2018-02-02T23:36:53.876Z,12.48
2018-02-02T23:39:21.549Z,12.98
2018-02-02T23:41:47.735Z,12.43
2018-02-02T23:44:13.902Z,12.20
2018-02-02T23:46:40.096Z,10.40
2018-02-02T23:49:06.261Z,11.60
2018-02-02T23:51:32.442Z,12.25
2018-02-02T23:53:59.370Z,11.60
2018-02-02T23:56:27.044Z,11.73
2018-02-02T23:58:53.235Z,11.77
